createdAt,value
2017-09-30T00:00:08.120Z,15.40
2017-09-30T00:02:35.626Z,15.40
2017-09-30T00:05:03.175Z,15.40
2017-09-30T00:07:31.449Z,15.30
2017-09-30T00:09:58.963Z,15.30
2017-09-30T00:12:26.540Z,15.30
2017-09-30T00:14:54.048Z,15.30
2017-09-30T00:17:21.555Z,15.20
2017-09-30T00:19:49.880Z,15.20
2017-09-30T00:22:18.169Z,15.20
2017-09-30T00:24:46.065Z,15.10
2017-09-30T00:27:13.627Z,15.10
2017-09-30T00:29:41.334Z,15.10
2017-09-30T00:32:10.369Z,15.10
2017-09-30T00:34:38.268Z,15.10
2017-09-30T00:37:06.019Z,15.10
2017-09-30T00:39:34.324Z,15.10
2017-09-30T00:42:01.901Z,15.10
2017-09-30T00:44:29.417Z,15.10
2017-09-30T00:46:58.435Z,15.10
2017-09-30T00:49:26.737Z,15.10
2017-09-30T00:51:55.052Z,15.10
2017-09-30T00:54:22.598Z,15.10
2017-09-30T00:56:50.155Z,15.10
2017-09-30T00:59:18.060Z,15.10
2017-09-30T01:01:46.719Z,15.00
2017-09-30T01:04:14.823Z,14.90
2017-09-30T01:06:42.822Z,14.90
2017-09-30T01:09:10.771Z,15.00
2017-09-30T01:11:39.414Z,14.90
2017-09-30T01:14:06.969Z,14.90
2017-09-30T01:16:35.321Z,14.90
2017-09-30T01:19:03.235Z,14.90
2017-09-30T01:21:31.336Z,14.90
2017-09-30T01:23:58.902Z,14.90
2017-09-30T01:26:28.068Z,14.90
2017-09-30T01:28:55.730Z,14.80
2017-09-30T01:31:24.041Z,14.70
2017-09-30T01:33:51.585Z,14.80
2017-09-30T01:36:20.486Z,14.80
2017-09-30T01:38:48.051Z,14.80
2017-09-30T01:41:15.595Z,14.80
2017-09-30T01:43:43.612Z,14.70
2017-09-30T01:46:11.119Z,14.70
2017-09-30T01:48:38.676Z,14.70
2017-09-30T01:51:07.336Z,14.70
2017-09-30T01:53:36.262Z,14.80
2017-09-30T01:56:04.168Z,14.80
2017-09-30T01:58:31.735Z,14.80
2017-09-30T02:01:00.040Z,14.80
2017-09-30T02:03:28.358Z,14.60
2017-09-30T02:05:55.937Z,14.70
2017-09-30T02:08:23.847Z,14.70
2017-09-30T02:10:52.140Z,14.70
2017-09-30T02:13:19.695Z,14.70
2017-09-30T02:15:47.243Z,14.70
2017-09-30T02:18:15.547Z,14.70
2017-09-30T02:20:43.284Z,14.70
2017-09-30T02:23:11.552Z,14.70
2017-09-30T02:25:39.098Z,14.70
2017-09-30T02:28:08.149Z,14.60
2017-09-30T02:30:36.441Z,14.60
2017-09-30T02:33:04.032Z,14.60
2017-09-30T02:35:32.306Z,14.60
2017-09-30T02:38:00.017Z,14.60
2017-09-30T02:40:28.331Z,14.50
2017-09-30T02:42:55.843Z,14.60
2017-09-30T02:45:23.448Z,14.50
2017-09-30T02:47:50.956Z,14.50
2017-09-30T02:50:18.507Z,14.40
2017-09-30T02:52:46.780Z,14.40
2017-09-30T02:55:15.086Z,14.40
2017-09-30T02:57:42.627Z,14.40
2017-09-30T03:00:10.908Z,14.40
2017-09-30T03:02:38.427Z,14.40
2017-09-30T03:05:05.969Z,14.40
2017-09-30T03:07:33.921Z,14.30
2017-09-30T03:10:01.433Z,14.40
2017-09-30T03:12:30.432Z,14.40
2017-09-30T03:14:59.266Z,14.30
2017-09-30T03:17:26.987Z,14.30
2017-09-30T03:19:55.293Z,14.30
2017-09-30T03:22:23.568Z,14.40
2017-09-30T03:24:52.507Z,14.40
2017-09-30T03:27:20.060Z,14.30
2017-09-30T03:29:47.556Z,14.30
2017-09-30T03:32:15.056Z,14.40
2017-09-30T03:34:42.592Z,14.40
2017-09-30T03:37:10.116Z,14.40
2017-09-30T03:39:37.693Z,14.50
2017-09-30T03:42:05.202Z,14.50
2017-09-30T03:44:33.286Z,14.40
2017-09-30T03:47:02.331Z,14.40
2017-09-30T03:49:30.326Z,14.40
2017-09-30T03:51:57.865Z,14.40
2017-09-30T03:54:26.257Z,14.40
2017-09-30T03:56:54.057Z,14.40
2017-09-30T03:59:22.368Z,14.50
2017-09-30T04:01:50.391Z,14.50
2017-09-30T04:04:17.933Z,14.50
2017-09-30T04:06:45.446Z,14.50
2017-09-30T04:09:13.176Z,14.50
2017-09-30T04:11:41.500Z,14.50
2017-09-30T04:14:09.686Z,14.50
2017-09-30T04:16:37.227Z,14.50
2017-09-30T04:19:04.756Z,14.50
2017-09-30T04:21:32.670Z,14.60
2017-09-30T04:24:00.221Z,14.60
2017-09-30T04:26:27.732Z,14.60
2017-09-30T04:28:56.011Z,14.60
2017-09-30T04:31:23.560Z,14.60
2017-09-30T04:33:51.064Z,14.60
2017-09-30T04:36:18.613Z,14.60
2017-09-30T04:38:46.883Z,14.60
2017-09-30T04:41:14.388Z,14.60
2017-09-30T04:43:42.032Z,14.60
2017-09-30T04:46:09.535Z,14.60
2017-09-30T04:48:37.141Z,14.60
2017-09-30T04:51:04.652Z,14.60
2017-09-30T04:53:32.736Z,14.60
2017-09-30T04:56:00.285Z,14.60
2017-09-30T04:58:27.796Z,14.60
2017-09-30T05:00:56.060Z,14.60
2017-09-30T05:03:23.618Z,14.60
2017-09-30T05:05:51.152Z,14.60
2017-09-30T05:08:18.653Z,14.60
2017-09-30T05:10:46.430Z,14.60
2017-09-30T05:13:13.941Z,14.60
2017-09-30T05:15:42.640Z,14.60
2017-09-30T05:18:10.927Z,14.70
2017-09-30T05:20:38.481Z,14.70
2017-09-30T05:23:06.381Z,14.80
2017-09-30T05:25:34.694Z,14.70
2017-09-30T05:28:02.510Z,14.70
2017-09-30T05:30:30.014Z,14.70
2017-09-30T05:32:57.552Z,14.70
2017-09-30T05:35:25.090Z,14.60
2017-09-30T05:37:52.667Z,14.60
2017-09-30T05:40:20.221Z,14.60
2017-09-30T05:42:47.729Z,14.60
2017-09-30T05:45:16.023Z,14.60
2017-09-30T05:47:43.569Z,14.70
2017-09-30T05:50:11.900Z,14.70
2017-09-30T05:52:39.607Z,14.70
2017-09-30T05:55:07.553Z,14.70
2017-09-30T05:57:35.119Z,14.70
2017-09-30T06:00:02.684Z,14.70
2017-09-30T06:02:31.283Z,14.80
2017-09-30T06:04:58.793Z,14.90
2017-09-30T06:07:26.391Z,14.80
2017-09-30T06:09:53.939Z,14.80
2017-09-30T06:12:21.470Z,14.90
2017-09-30T06:14:49.019Z,14.90
2017-09-30T06:17:16.693Z,15.00
2017-09-30T06:19:44.456Z,15.10
2017-09-30T06:22:12.483Z,15.30
2017-09-30T06:24:40.000Z,15.40
2017-09-30T06:27:07.565Z,15.50
2017-09-30T06:29:36.014Z,15.70
2017-09-30T06:32:03.535Z,15.90
2017-09-30T06:34:31.076Z,16.10
2017-09-30T06:37:00.193Z,16.30
2017-09-30T06:39:28.473Z,16.50
2017-09-30T06:41:55.994Z,16.60
2017-09-30T06:44:23.625Z,16.90
2017-09-30T06:46:51.135Z,17.20
2017-09-30T06:49:19.890Z,17.40
2017-09-30T06:51:47.447Z,17.90
2017-09-30T06:54:14.956Z,18.20
2017-09-30T06:56:42.561Z,18.60
2017-09-30T06:59:10.073Z,18.80
2017-09-30T07:01:37.621Z,19.40
2017-09-30T07:04:05.955Z,19.20
2017-09-30T07:06:34.237Z,19.60
2017-09-30T07:09:01.777Z,19.70
2017-09-30T07:11:29.704Z,19.50
2017-09-30T07:13:58.038Z,19.70
2017-09-30T07:16:26.345Z,20.10
2017-09-30T07:21:22.759Z,20.40
2017-09-30T07:23:50.306Z,19.90
2017-09-30T07:26:17.847Z,20.00
2017-09-30T07:28:45.783Z,20.20
2017-09-30T07:31:14.316Z,20.70
2017-09-30T07:33:41.852Z,20.70
2017-09-30T07:36:09.391Z,20.70
2017-09-30T07:38:37.664Z,21.10
2017-09-30T07:41:05.600Z,21.40
2017-09-30T07:43:33.354Z,21.20
2017-09-30T07:46:01.259Z,21.30
2017-09-30T07:48:29.171Z,21.70
2017-09-30T07:50:56.839Z,22.00
2017-09-30T07:53:24.512Z,22.80
2017-09-30T07:55:52.029Z,23.70
2017-09-30T07:58:19.981Z,23.60
2017-09-30T08:00:48.264Z,23.10
2017-09-30T08:03:16.528Z,22.90
2017-09-30T08:05:44.077Z,23.30
2017-09-30T08:08:12.174Z,24.00
2017-09-30T08:10:39.729Z,24.00
2017-09-30T08:13:07.998Z,23.50
2017-09-30T08:15:35.521Z,23.00
2017-09-30T08:18:03.856Z,22.30
2017-09-30T08:20:31.378Z,21.80
2017-09-30T08:22:58.893Z,22.00
2017-09-30T08:25:26.652Z,22.90
2017-09-30T08:27:54.609Z,23.10
2017-09-30T08:30:22.520Z,23.40
2017-09-30T08:32:50.845Z,23.90
2017-09-30T08:35:18.769Z,24.30
2017-09-30T08:37:47.336Z,24.20
2017-09-30T08:40:15.656Z,24.10
2017-09-30T08:42:43.215Z,23.90
2017-09-30T08:45:11.513Z,23.60
2017-09-30T08:47:39.278Z,23.00
2017-09-30T08:50:07.627Z,22.80
2017-09-30T08:52:35.910Z,22.70
2017-09-30T08:55:03.497Z,23.20
2017-09-30T08:57:31.900Z,22.70
2017-09-30T08:59:59.407Z,23.20
2017-09-30T09:02:27.719Z,24.00
2017-09-30T09:04:55.619Z,24.40
2017-09-30T09:07:23.159Z,24.30
2017-09-30T09:09:50.872Z,24.60
2017-09-30T09:12:19.296Z,24.00
2017-09-30T09:14:47.584Z,24.10
2017-09-30T09:17:15.094Z,23.50
2017-09-30T09:19:43.097Z,23.40
2017-09-30T09:22:11.376Z,23.50
2017-09-30T09:24:39.296Z,24.40
2017-09-30T09:27:07.648Z,24.80
2017-09-30T09:29:35.172Z,25.40
2017-09-30T09:32:02.705Z,25.70
2017-09-30T09:34:30.257Z,26.30
2017-09-30T09:36:58.544Z,26.80
2017-09-30T09:41:56.095Z,26.60
2017-09-30T09:44:24.033Z,27.00
2017-09-30T09:46:51.577Z,26.50
2017-09-30T09:49:20.608Z,26.90
2017-09-30T09:51:48.157Z,27.60
2017-09-30T09:54:16.848Z,27.40
2017-09-30T09:56:44.838Z,27.50
2017-09-30T09:59:13.121Z,27.30
2017-09-30T10:01:41.556Z,28.10
2017-09-30T10:04:09.163Z,28.50
2017-09-30T10:06:36.711Z,27.90
2017-09-30T10:09:04.648Z,27.90
2017-09-30T10:11:32.628Z,27.70
2017-09-30T10:14:00.535Z,27.70
2017-09-30T10:16:28.264Z,27.80
2017-09-30T10:18:56.593Z,27.80
2017-09-30T10:21:24.100Z,28.00
2017-09-30T10:23:51.850Z,29.10
2017-09-30T10:26:20.009Z,28.40
2017-09-30T10:28:48.296Z,27.50
2017-09-30T10:33:44.731Z,26.30
2017-09-30T10:36:13.379Z,25.90
2017-09-30T10:38:40.916Z,25.70
2017-09-30T10:41:08.546Z,25.00
2017-09-30T10:43:37.221Z,24.90
2017-09-30T10:46:05.197Z,24.80
2017-09-30T10:48:33.516Z,24.60
2017-09-30T10:51:01.477Z,24.80
2017-09-30T10:53:29.776Z,25.10
2017-09-30T10:55:58.452Z,24.90
2017-09-30T10:58:26.499Z,24.80
2017-09-30T11:00:54.406Z,25.30
2017-09-30T11:03:21.996Z,25.80
2017-09-30T11:05:50.683Z,27.50
2017-09-30T11:08:18.219Z,28.80
2017-09-30T11:10:46.167Z,29.30
2017-09-30T11:13:14.838Z,27.40
2017-09-30T11:15:43.177Z,27.90
2017-09-30T11:18:11.836Z,27.20
2017-09-30T11:20:40.864Z,27.00
2017-09-30T11:25:37.670Z,27.60
2017-09-30T11:28:05.216Z,28.50
2017-09-30T11:30:32.748Z,28.90
2017-09-30T11:33:00.265Z,28.60
2017-09-30T11:37:58.222Z,28.90
2017-09-30T11:40:26.694Z,28.70
2017-09-30T11:42:55.001Z,29.10
2017-09-30T11:45:22.911Z,28.70
2017-09-30T11:47:50.864Z,28.00
2017-09-30T11:50:18.377Z,27.90
2017-09-30T11:52:46.307Z,28.40
2017-09-30T11:55:14.988Z,28.50
2017-09-30T11:57:43.517Z,28.70
2017-09-30T12:00:11.440Z,28.20
2017-09-30T12:02:39.755Z,28.50
2017-09-30T12:05:08.141Z,27.90
2017-09-30T12:07:35.728Z,27.90
2017-09-30T12:10:03.300Z,27.60
2017-09-30T12:12:30.894Z,27.60
2017-09-30T12:15:00.467Z,27.90
2017-09-30T12:17:28.022Z,27.70
2017-09-30T12:19:56.299Z,26.90
2017-09-30T12:22:24.574Z,26.20
2017-09-30T12:24:52.149Z,25.40
2017-09-30T12:27:20.476Z,24.80
2017-09-30T12:29:48.755Z,24.40
2017-09-30T12:32:16.716Z,24.10
2017-09-30T12:34:44.672Z,24.20
2017-09-30T12:37:12.790Z,24.60
2017-09-30T12:39:40.301Z,25.00
2017-09-30T12:42:08.998Z,25.90
2017-09-30T12:44:36.899Z,26.80
2017-09-30T12:47:06.075Z,26.90
2017-09-30T12:49:34.787Z,26.80
2017-09-30T12:52:02.323Z,26.80
2017-09-30T12:54:30.271Z,27.20
2017-09-30T12:56:57.794Z,27.30
2017-09-30T12:59:26.176Z,27.90
2017-09-30T13:04:23.241Z,27.80
2017-09-30T13:06:51.509Z,27.10
2017-09-30T13:09:19.826Z,25.90
2017-09-30T13:14:16.389Z,25.70
2017-09-30T13:16:44.714Z,25.70
2017-09-30T13:19:12.239Z,25.50
2017-09-30T13:21:40.218Z,25.50
2017-09-30T13:24:08.122Z,26.70
2017-09-30T13:26:36.034Z,27.40
2017-09-30T13:29:03.605Z,27.80
2017-09-30T13:31:32.603Z,27.70
2017-09-30T13:34:00.862Z,27.40
2017-09-30T13:36:29.193Z,26.90
2017-09-30T13:38:56.737Z,26.30
2017-09-30T13:43:53.136Z,25.60
2017-09-30T13:48:49.961Z,25.20
2017-09-30T13:51:18.240Z,25.00
2017-09-30T13:53:46.202Z,24.80
2017-09-30T13:56:14.118Z,24.30
2017-09-30T13:58:43.156Z,24.20
2017-09-30T14:03:40.360Z,24.30
2017-09-30T14:06:08.685Z,24.30
2017-09-30T14:08:36.260Z,24.30
2017-09-30T14:11:03.762Z,24.00
2017-09-30T14:13:31.676Z,23.80
2017-09-30T14:18:28.508Z,23.60
2017-09-30T14:20:56.429Z,23.80
2017-09-30T14:23:25.077Z,23.50
2017-09-30T14:25:53.141Z,23.50
2017-09-30T14:30:49.953Z,23.00
2017-09-30T14:33:17.504Z,22.90
2017-09-30T14:38:13.984Z,22.80
2017-09-30T14:40:41.556Z,22.80
2017-09-30T14:43:09.058Z,22.90
2017-09-30T14:45:36.966Z,22.80
2017-09-30T14:48:04.526Z,22.80
2017-09-30T14:50:32.818Z,22.80
2017-09-30T14:55:29.244Z,22.60
2017-09-30T15:00:25.998Z,22.70
2017-09-30T15:02:53.560Z,22.80
2017-09-30T15:05:21.073Z,23.00
2017-09-30T15:07:49.026Z,23.00
2017-09-30T15:10:16.694Z,23.00
2017-09-30T15:12:44.802Z,22.80
2017-09-30T15:15:13.108Z,22.70
2017-09-30T15:17:41.108Z,22.60
2017-09-30T15:22:38.304Z,22.00
2017-09-30T15:25:06.950Z,21.60
2017-09-30T15:27:34.520Z,21.30
2017-09-30T15:30:02.050Z,21.00
2017-09-30T15:34:58.869Z,19.60
2017-09-30T15:37:27.250Z,19.00
2017-09-30T15:39:55.903Z,18.60
2017-09-30T15:42:23.479Z,18.40
2017-09-30T15:44:51.505Z,18.20
2017-09-30T15:47:19.481Z,18.10
2017-09-30T15:52:16.283Z,17.90
2017-09-30T15:54:43.923Z,17.80
2017-09-30T15:57:12.260Z,17.60
2017-09-30T15:59:40.198Z,17.60
2017-09-30T16:02:08.131Z,17.60
2017-09-30T16:07:04.914Z,17.40
2017-09-30T16:09:33.430Z,17.30
2017-09-30T16:12:01.520Z,17.40
2017-09-30T16:14:29.810Z,17.30
2017-09-30T16:16:59.037Z,17.10
2017-09-30T16:19:28.071Z,16.80
2017-09-30T16:21:56.342Z,16.80
2017-09-30T16:24:24.295Z,16.70
2017-09-30T16:26:52.952Z,16.50
2017-09-30T16:29:20.485Z,16.40
2017-09-30T16:31:47.990Z,16.40
2017-09-30T16:34:16.318Z,16.30
2017-09-30T16:36:44.225Z,16.30
2017-09-30T16:39:13.248Z,16.00
2017-09-30T16:41:41.933Z,15.70
2017-09-30T16:44:09.856Z,15.40
2017-09-30T16:46:37.372Z,15.20
2017-09-30T16:49:04.913Z,15.10
2017-09-30T16:51:32.456Z,15.00
2017-09-30T16:54:00.376Z,15.10
2017-09-30T16:56:28.336Z,15.00
2017-09-30T16:58:56.336Z,14.90
2017-09-30T17:01:23.888Z,14.90
2017-09-30T17:03:51.614Z,14.90
2017-09-30T17:06:20.092Z,14.70
2017-09-30T17:08:47.602Z,14.50
2017-09-30T17:13:44.062Z,14.50
2017-09-30T17:16:11.581Z,14.40
2017-09-30T17:18:40.244Z,14.40
2017-09-30T17:21:07.780Z,14.20
2017-09-30T17:23:36.817Z,14.20
2017-09-30T17:26:04.333Z,14.20
2017-09-30T17:28:32.640Z,14.00
2017-09-30T17:31:00.209Z,13.90
2017-09-30T17:35:57.410Z,13.60
2017-09-30T17:40:54.802Z,13.30
2017-09-30T17:43:22.343Z,13.20
2017-09-30T17:45:49.844Z,13.10
2017-09-30T17:48:17.385Z,13.10
2017-09-30T17:50:45.317Z,13.10
2017-09-30T17:53:13.098Z,13.10
2017-09-30T17:55:41.398Z,13.00
2017-09-30T17:58:09.302Z,13.00
2017-09-30T18:00:36.853Z,13.00
2017-09-30T18:03:04.533Z,13.00
2017-09-30T18:05:32.089Z,13.00
2017-09-30T18:07:59.645Z,13.00
2017-09-30T18:10:28.333Z,12.90
2017-09-30T18:12:56.084Z,12.90
2017-09-30T18:15:24.393Z,12.90
2017-09-30T18:17:52.693Z,13.00
2017-09-30T18:20:20.205Z,13.00
2017-09-30T18:22:48.549Z,13.00
2017-09-30T18:25:16.833Z,13.00
2017-09-30T18:27:44.370Z,13.00
2017-09-30T18:30:12.678Z,13.00
2017-09-30T18:32:40.171Z,13.00
2017-09-30T18:35:08.505Z,13.00
2017-09-30T18:37:36.090Z,13.00
2017-09-30T18:40:03.627Z,12.90
2017-09-30T18:42:32.281Z,12.90
2017-09-30T18:44:59.834Z,12.90
2017-09-30T18:47:27.521Z,12.90
2017-09-30T18:49:55.196Z,12.90
2017-09-30T18:52:22.754Z,12.90
2017-09-30T18:54:50.505Z,12.90
2017-09-30T18:57:18.844Z,12.90
2017-09-30T18:59:47.117Z,12.90
2017-09-30T19:02:14.839Z,12.90
2017-09-30T19:04:42.390Z,12.90
2017-09-30T19:09:38.751Z,12.80
2017-09-30T19:12:07.056Z,12.80
2017-09-30T19:14:34.573Z,12.80
2017-09-30T19:17:02.135Z,12.80
2017-09-30T19:21:59.655Z,12.80
2017-09-30T19:24:28.132Z,12.80
2017-09-30T19:26:56.069Z,12.80
2017-09-30T19:29:24.416Z,12.70
2017-09-30T19:31:51.923Z,12.80
2017-09-30T19:34:19.832Z,12.70
2017-09-30T19:36:48.140Z,9.20
2017-09-30T19:39:15.936Z,12.70
2017-09-30T19:41:43.505Z,12.70
2017-09-30T19:44:11.016Z,12.50
2017-09-30T19:46:38.684Z,12.40
2017-09-30T19:49:06.238Z,12.30
2017-09-30T19:51:33.746Z,12.30
2017-09-30T19:54:02.073Z,12.30
2017-09-30T19:56:30.093Z,12.30
2017-09-30T19:58:57.603Z,12.20
2017-09-30T20:01:25.557Z,12.30
2017-09-30T20:03:53.118Z,12.40
2017-09-30T20:06:20.636Z,12.40
2017-09-30T20:08:48.204Z,12.50
2017-09-30T20:11:16.144Z,12.40
2017-09-30T20:13:43.717Z,12.40
2017-09-30T20:16:11.263Z,12.50
2017-09-30T20:18:39.554Z,12.60
2017-09-30T20:21:07.861Z,12.60
2017-09-30T20:23:36.141Z,12.60
2017-09-30T20:26:04.755Z,12.70
2017-09-30T20:28:32.545Z,12.70
2017-09-30T20:31:00.128Z,12.60
2017-09-30T20:33:29.001Z,12.60
2017-09-30T20:35:56.532Z,12.60
2017-09-30T20:38:24.049Z,12.60
2017-09-30T20:40:52.740Z,12.50
2017-09-30T20:43:20.239Z,12.50
2017-09-30T20:45:47.781Z,12.50
2017-09-30T20:48:15.400Z,12.40
2017-09-30T20:50:42.947Z,12.40
2017-09-30T20:53:11.346Z,12.50
2017-09-30T20:55:39.067Z,12.50
2017-09-30T20:58:07.348Z,12.50
2017-09-30T21:00:35.668Z,12.50
2017-09-30T21:03:03.183Z,12.60
2017-09-30T21:05:31.768Z,12.60
2017-09-30T21:08:00.172Z,12.50
2017-09-30T21:10:27.672Z,12.50
2017-09-30T21:12:55.604Z,12.40
2017-09-30T21:15:23.150Z,12.40
2017-09-30T21:17:51.050Z,12.30
2017-09-30T21:20:18.637Z,12.30
2017-09-30T21:22:46.156Z,12.20
2017-09-30T21:25:13.664Z,12.20
2017-09-30T21:27:42.036Z,12.10
2017-09-30T21:30:10.313Z,12.10
2017-09-30T21:32:37.831Z,12.00
2017-09-30T21:35:05.922Z,12.00
2017-09-30T21:37:33.446Z,11.90
2017-09-30T21:40:00.973Z,12.00
2017-09-30T21:42:30.314Z,11.90
2017-09-30T21:44:58.585Z,11.80
2017-09-30T21:49:55.045Z,11.70
2017-09-30T21:52:22.553Z,11.70
2017-09-30T21:54:50.505Z,11.80
2017-09-30T21:57:18.871Z,11.80
2017-09-30T21:59:47.917Z,11.70
2017-09-30T22:02:15.428Z,11.80
2017-09-30T22:04:43.344Z,11.80
2017-09-30T22:07:11.688Z,12.00
2017-09-30T22:09:39.206Z,12.00
2017-09-30T22:12:06.777Z,12.00
2017-09-30T22:14:34.333Z,12.10
2017-09-30T22:17:02.743Z,12.00
2017-09-30T22:19:31.060Z,12.10
2017-09-30T22:21:59.377Z,12.00
2017-09-30T22:24:27.662Z,12.00
2017-09-30T22:26:55.590Z,12.00
2017-09-30T22:29:23.100Z,12.10
2017-09-30T22:31:50.601Z,12.00
2017-09-30T22:34:19.273Z,12.00
2017-09-30T22:36:46.777Z,12.00
2017-09-30T22:39:14.328Z,12.10
2017-09-30T22:41:41.888Z,12.10
2017-09-30T22:44:09.397Z,12.10
2017-09-30T22:46:36.920Z,12.10
2017-09-30T22:49:05.428Z,12.10
2017-09-30T22:51:33.024Z,12.10
2017-09-30T22:54:01.664Z,12.00
2017-09-30T22:56:29.183Z,12.00
2017-09-30T22:58:56.720Z,12.00
2017-09-30T23:01:24.355Z,12.00
2017-09-30T23:03:51.893Z,12.00
2017-09-30T23:06:19.446Z,11.90
2017-09-30T23:08:47.723Z,11.90
2017-09-30T23:11:15.245Z,11.90
2017-09-30T23:13:42.786Z,11.90
2017-09-30T23:16:11.844Z,11.80
2017-09-30T23:18:39.768Z,11.80
2017-09-30T23:23:36.254Z,11.80
2017-09-30T23:26:04.908Z,11.80
2017-09-30T23:28:32.430Z,11.80
2017-09-30T23:30:59.973Z,11.80
2017-09-30T23:33:27.599Z,11.80
2017-09-30T23:35:55.138Z,11.80
2017-09-30T23:38:23.739Z,11.80
2017-09-30T23:40:51.250Z,11.80
2017-09-30T23:43:19.564Z,11.80
2017-09-30T23:45:47.838Z,11.80
2017-09-30T23:48:15.341Z,11.80
2017-09-30T23:53:11.742Z,11.80
2017-09-30T23:55:39.701Z,11.90
2017-09-30T23:58:08.188Z,11.80
